createdAt,value
2023-04-30T00:00:11.248Z,93.30
2023-04-30T00:02:39.674Z,93.44
2023-04-30T00:05:08.778Z,93.54
2023-04-30T00:07:36.765Z,92.98
2023-04-30T00:10:05.950Z,92.85
2023-04-30T00:12:33.748Z,92.84
2023-04-30T00:15:01.811Z,92.20
2023-04-30T00:17:29.777Z,92.23
2023-04-30T00:19:57.354Z,92.64
2023-04-30T00:22:25.242Z,92.96
2023-04-30T00:24:53.251Z,92.77
2023-04-30T00:27:21.138Z,92.10
2023-04-30T00:29:48.997Z,91.73
2023-04-30T00:32:17.010Z,90.54
2023-04-30T00:34:44.899Z,89.40
2023-04-30T00:37:12.869Z,89.42
2023-04-30T00:39:40.470Z,88.54
2023-04-30T00:42:10.985Z,88.26
2023-04-30T00:44:38.775Z,87.34
2023-04-30T00:47:06.312Z,86.44
2023-04-30T00:49:33.760Z,86.49
2023-04-30T00:52:01.446Z,87.16
2023-04-30T00:54:29.604Z,88.00
2023-04-30T00:56:57.529Z,88.40
2023-04-30T00:59:26.152Z,88.56
2023-04-30T01:01:53.781Z,88.79
2023-04-30T01:04:21.768Z,89.14
2023-04-30T01:06:49.229Z,88.54
2023-04-30T01:09:18.529Z,87.99
2023-04-30T01:12:09.808Z,87.44
2023-04-30T01:15:09.678Z,87.43
2023-04-30T01:17:45.623Z,86.79
2023-04-30T01:20:13.588Z,86.49
2023-04-30T01:22:49.754Z,86.87
2023-04-30T01:25:40.107Z,86.96
2023-04-30T01:28:11.085Z,87.70
2023-04-30T01:30:40.796Z,87.58
2023-04-30T01:33:08.593Z,88.88
2023-04-30T01:35:58.460Z,88.53
2023-04-30T01:38:43.984Z,87.89
2023-04-30T01:41:34.878Z,87.80
2023-04-30T01:44:13.492Z,87.66
2023-04-30T01:46:47.402Z,87.45
2023-04-30T01:49:26.540Z,87.54
2023-04-30T01:51:57.375Z,87.17
2023-04-30T01:54:35.240Z,87.75
2023-04-30T01:57:04.652Z,87.53
2023-04-30T01:59:39.181Z,87.13
2023-04-30T02:02:06.840Z,86.82
2023-04-30T02:04:34.416Z,86.41
2023-04-30T02:07:01.954Z,87.16
2023-04-30T02:09:29.860Z,88.02
2023-04-30T02:11:57.968Z,88.44
2023-04-30T02:14:25.854Z,88.58
2023-04-30T02:16:53.811Z,88.95
2023-04-30T02:19:21.684Z,89.06
2023-04-30T02:21:49.227Z,89.27
2023-04-30T02:24:16.764Z,89.63
2023-04-30T02:26:44.931Z,89.69
2023-04-30T02:29:12.873Z,89.63
2023-04-30T02:31:40.442Z,89.85
2023-04-30T02:34:09.895Z,90.53
2023-04-30T02:36:38.022Z,91.11
2023-04-30T02:39:06.287Z,90.74
2023-04-30T02:41:33.831Z,90.27
2023-04-30T02:44:01.352Z,90.52
2023-04-30T02:46:29.265Z,91.33
2023-04-30T02:48:56.701Z,92.35
2023-04-30T02:51:24.561Z,92.42
2023-04-30T02:53:52.109Z,92.17
2023-04-30T02:56:20.010Z,91.26
2023-04-30T02:58:47.793Z,92.31
2023-04-30T03:01:15.591Z,91.88
2023-04-30T03:03:43.723Z,91.52
2023-04-30T03:06:11.701Z,91.60
2023-04-30T03:08:39.575Z,91.67
2023-04-30T03:11:08.232Z,91.95
2023-04-30T03:13:36.078Z,92.53
2023-04-30T03:16:05.118Z,93.80
2023-04-30T03:18:33.089Z,94.30
2023-04-30T03:21:01.306Z,94.28
2023-04-30T03:23:29.231Z,94.79
2023-04-30T03:25:57.488Z,94.33
2023-04-30T03:28:25.463Z,93.98
2023-04-30T03:30:53.482Z,94.77
2023-04-30T03:33:22.152Z,94.77
2023-04-30T03:35:50.735Z,94.07
2023-04-30T03:38:18.616Z,94.19
2023-04-30T03:40:46.190Z,94.70
2023-04-30T03:43:13.975Z,94.51
2023-04-30T03:45:42.321Z,94.85
2023-04-30T03:48:09.764Z,94.80
2023-04-30T03:50:37.411Z,94.78
2023-04-30T03:53:05.356Z,94.63
2023-04-30T03:55:33.162Z,94.09
2023-04-30T03:58:00.735Z,94.75
2023-04-30T04:00:28.247Z,94.48
2023-04-30T04:02:55.381Z,94.91
2023-04-30T04:05:23.210Z,94.86
2023-04-30T04:07:50.855Z,94.90
2023-04-30T04:10:18.828Z,95.30
2023-04-30T04:12:46.582Z,94.63
2023-04-30T04:15:13.665Z,94.98
2023-04-30T04:17:42.146Z,95.13
2023-04-30T04:20:14.126Z,94.90
2023-04-30T04:22:42.103Z,95.50
2023-04-30T04:25:11.324Z,95.10
2023-04-30T04:27:39.274Z,95.18
2023-04-30T04:30:09.769Z,94.95
2023-04-30T04:32:48.369Z,95.36
2023-04-30T04:35:16.375Z,95.18
2023-04-30T04:37:43.856Z,94.91
2023-04-30T04:40:12.548Z,94.62
2023-04-30T04:42:40.129Z,94.11
2023-04-30T04:45:08.775Z,94.17
2023-04-30T04:47:36.913Z,94.01
2023-04-30T04:50:04.945Z,93.48
2023-04-30T04:52:32.639Z,93.50
2023-04-30T04:55:00.584Z,93.09
2023-04-30T04:57:28.533Z,92.33
2023-04-30T04:59:57.501Z,92.42
2023-04-30T05:02:25.539Z,92.71
2023-04-30T05:04:53.391Z,92.33
2023-04-30T05:07:21.332Z,92.73
2023-04-30T05:09:49.165Z,92.69
2023-04-30T05:12:16.595Z,91.96
2023-04-30T05:14:44.896Z,91.63
2023-04-30T05:17:12.334Z,91.55
2023-04-30T05:19:40.237Z,91.12
2023-04-30T05:22:07.791Z,90.77
2023-04-30T05:24:35.700Z,90.78
2023-04-30T05:27:06.053Z,89.91
2023-04-30T05:29:33.498Z,89.48
2023-04-30T05:32:02.058Z,88.99
2023-04-30T05:34:29.597Z,88.62
2023-04-30T05:37:01.593Z,88.58
2023-04-30T05:39:29.566Z,88.54
2023-04-30T05:41:57.314Z,87.65
2023-04-30T05:44:25.399Z,87.37
2023-04-30T05:46:52.928Z,87.30
2023-04-30T05:49:20.769Z,86.85
2023-04-30T05:51:48.653Z,86.66
2023-04-30T05:54:16.157Z,86.48
2023-04-30T05:56:43.944Z,86.30
2023-04-30T05:59:11.658Z,85.96
2023-04-30T06:01:39.700Z,85.60
2023-04-30T06:04:09.304Z,85.72
2023-04-30T06:06:36.979Z,85.92
2023-04-30T06:09:05.226Z,85.52
2023-04-30T06:11:32.666Z,85.33
2023-04-30T06:14:00.606Z,85.31
2023-04-30T06:16:28.137Z,85.31
2023-04-30T06:18:55.701Z,85.15
2023-04-30T06:21:26.044Z,85.62
2023-04-30T06:23:53.547Z,85.91
2023-04-30T06:26:21.147Z,85.96
2023-04-30T06:28:48.691Z,85.67
2023-04-30T06:31:17.310Z,85.41
2023-04-30T06:33:44.882Z,85.17
2023-04-30T06:36:12.263Z,85.07
2023-04-30T06:38:40.098Z,84.86
2023-04-30T06:41:09.148Z,84.79
2023-04-30T06:43:37.018Z,84.59
2023-04-30T06:46:06.653Z,84.08
2023-04-30T06:48:34.569Z,83.85
2023-04-30T06:51:02.899Z,82.98
2023-04-30T06:53:30.754Z,82.85
2023-04-30T06:55:58.711Z,82.32
2023-04-30T06:58:26.835Z,82.31
2023-04-30T07:00:54.397Z,83.04
2023-04-30T07:03:22.151Z,83.32
2023-04-30T07:05:50.461Z,83.78
2023-04-30T07:08:24.483Z,83.95
2023-04-30T07:10:52.566Z,83.97
2023-04-30T07:13:19.973Z,84.53
2023-04-30T07:15:47.481Z,84.77
2023-04-30T07:18:16.484Z,84.64
2023-04-30T07:20:44.340Z,84.87
2023-04-30T07:23:12.243Z,84.17
2023-04-30T07:25:46.266Z,83.55
2023-04-30T07:28:13.888Z,81.60
2023-04-30T07:30:41.777Z,81.14
2023-04-30T07:33:09.701Z,80.10
2023-04-30T07:35:37.452Z,79.15
2023-04-30T07:38:05.956Z,78.65
2023-04-30T07:40:36.305Z,77.67
2023-04-30T07:43:05.160Z,75.79
2023-04-30T07:45:33.937Z,74.36
2023-04-30T07:48:01.566Z,72.88
2023-04-30T07:50:33.734Z,72.40
2023-04-30T07:53:01.922Z,71.06
2023-04-30T07:55:29.439Z,71.94
2023-04-30T07:57:56.964Z,72.40
2023-04-30T08:00:24.217Z,72.66
2023-04-30T08:02:52.275Z,72.38
2023-04-30T08:05:20.473Z,71.19
2023-04-30T08:07:48.435Z,69.04
2023-04-30T08:10:16.476Z,68.14
2023-04-30T08:12:44.357Z,68.83
2023-04-30T08:15:12.226Z,68.17
2023-04-30T08:17:40.173Z,67.63
2023-04-30T08:20:10.690Z,66.90
2023-04-30T08:22:38.559Z,66.98
2023-04-30T08:25:07.593Z,66.27
2023-04-30T08:27:35.418Z,66.36
2023-04-30T08:30:03.752Z,65.60
2023-04-30T08:32:31.632Z,65.22
2023-04-30T08:34:59.481Z,65.10
2023-04-30T08:37:27.381Z,65.50
2023-04-30T08:39:55.561Z,65.87
2023-04-30T08:42:25.840Z,65.85
2023-04-30T08:44:53.366Z,65.35
2023-04-30T08:47:21.811Z,64.99
2023-04-30T08:49:48.577Z,63.93
2023-04-30T08:52:16.565Z,64.27
2023-04-30T08:54:44.827Z,64.03
2023-04-30T08:57:12.680Z,64.14
2023-04-30T08:59:40.602Z,63.42
2023-04-30T09:02:10.171Z,62.98
2023-04-30T09:04:37.965Z,62.64
2023-04-30T09:07:06.869Z,61.61
2023-04-30T09:09:39.426Z,61.11
2023-04-30T09:12:17.799Z,60.83
2023-04-30T09:15:04.971Z,60.47
2023-04-30T09:17:33.019Z,57.50
2023-04-30T09:20:12.580Z,57.65
2023-04-30T09:22:41.501Z,57.28
2023-04-30T09:25:08.804Z,57.35
2023-04-30T09:27:36.536Z,57.17
2023-04-30T09:30:04.888Z,56.21
2023-04-30T09:32:32.950Z,56.47
2023-04-30T09:35:00.626Z,56.22
2023-04-30T09:37:38.357Z,56.71
2023-04-30T09:40:05.502Z,55.69
2023-04-30T09:42:33.692Z,54.70
2023-04-30T09:45:01.731Z,54.83
2023-04-30T09:47:32.197Z,54.71
2023-04-30T09:50:00.648Z,55.74
2023-04-30T09:52:27.802Z,55.67
2023-04-30T09:54:55.391Z,55.10
2023-04-30T09:57:24.005Z,54.32
2023-04-30T09:59:51.705Z,54.04
2023-04-30T10:02:21.310Z,54.03
2023-04-30T10:04:50.019Z,54.43
2023-04-30T10:07:20.116Z,53.49
2023-04-30T10:10:03.255Z,52.80
2023-04-30T10:12:52.456Z,52.59
2023-04-30T10:15:30.831Z,52.45
2023-04-30T10:18:46.321Z,52.32
2023-04-30T10:21:14.211Z,51.48
2023-04-30T10:23:43.812Z,51.80
2023-04-30T10:26:16.372Z,52.12
2023-04-30T10:28:43.950Z,51.82
2023-04-30T10:31:11.209Z,50.96
2023-04-30T10:33:58.717Z,50.37
2023-04-30T10:37:08.455Z,49.25
2023-04-30T10:39:36.178Z,48.83
2023-04-30T10:42:03.876Z,47.85
2023-04-30T10:44:38.401Z,47.60
2023-04-30T10:47:07.207Z,48.48
2023-04-30T10:49:35.131Z,48.19
2023-04-30T10:52:03.699Z,49.23
2023-04-30T10:54:37.624Z,49.31
2023-04-30T10:57:14.301Z,49.62
2023-04-30T11:00:08.483Z,48.02
2023-04-30T11:02:44.149Z,47.51
2023-04-30T11:05:15.626Z,47.46
2023-04-30T11:07:50.548Z,48.19
2023-04-30T11:10:21.216Z,48.35
2023-04-30T11:12:49.282Z,47.83
2023-04-30T11:15:18.768Z,47.69
2023-04-30T11:17:46.054Z,46.89
2023-04-30T11:20:13.956Z,47.92
2023-04-30T11:22:41.701Z,46.58
2023-04-30T11:25:16.078Z,45.58
2023-04-30T11:27:47.681Z,46.65
2023-04-30T11:30:16.026Z,46.97
2023-04-30T11:32:48.083Z,45.66
2023-04-30T11:35:18.799Z,44.22
2023-04-30T11:37:46.518Z,44.44
2023-04-30T11:40:14.441Z,44.56
2023-04-30T11:42:47.021Z,45.02
2023-04-30T11:45:17.581Z,43.32
2023-04-30T11:47:56.836Z,42.93
2023-04-30T11:50:30.286Z,41.58
2023-04-30T11:52:57.649Z,41.66
2023-04-30T11:55:25.764Z,41.14
2023-04-30T11:57:58.782Z,39.94
2023-04-30T12:00:30.210Z,38.65
2023-04-30T12:02:57.905Z,37.92
2023-04-30T12:05:25.889Z,35.80
2023-04-30T12:07:57.697Z,34.65
2023-04-30T12:10:28.824Z,34.07
2023-04-30T12:12:56.564Z,34.00
2023-04-30T12:15:28.068Z,32.06
2023-04-30T12:18:00.052Z,31.69
2023-04-30T12:20:28.996Z,32.34
2023-04-30T12:22:56.168Z,32.61
2023-04-30T12:25:23.561Z,33.17
2023-04-30T12:27:53.742Z,33.74
2023-04-30T12:30:27.574Z,34.48
2023-04-30T12:32:54.868Z,34.70
2023-04-30T12:35:23.636Z,34.22
2023-04-30T12:37:52.709Z,34.95
2023-04-30T12:40:27.107Z,35.60
2023-04-30T12:43:08.461Z,35.04
2023-04-30T12:45:48.870Z,35.20
2023-04-30T12:48:16.007Z,33.79
2023-04-30T12:50:43.264Z,33.44
2023-04-30T12:53:10.572Z,33.02
2023-04-30T12:55:39.451Z,31.87
2023-04-30T12:58:11.421Z,31.17
2023-04-30T13:00:51.099Z,30.60
2023-04-30T13:03:20.042Z,29.05
2023-04-30T13:05:48.775Z,28.25
2023-04-30T13:08:16.817Z,28.54
2023-04-30T13:10:44.557Z,28.94
2023-04-30T13:13:12.505Z,30.52
2023-04-30T13:15:40.801Z,31.46
2023-04-30T13:18:12.600Z,30.69
2023-04-30T13:20:40.397Z,30.71
2023-04-30T13:23:08.483Z,31.04
2023-04-30T13:25:36.134Z,31.06
2023-04-30T13:28:04.051Z,32.25
2023-04-30T13:30:31.935Z,32.68
2023-04-30T13:32:59.860Z,33.23
2023-04-30T13:35:27.047Z,33.28
2023-04-30T13:37:55.060Z,32.66
2023-04-30T13:40:22.989Z,32.26
2023-04-30T13:42:50.520Z,32.02
2023-04-30T13:45:18.291Z,32.70
2023-04-30T13:47:46.207Z,33.31
2023-04-30T13:50:13.643Z,33.53
2023-04-30T13:52:41.165Z,34.14
2023-04-30T13:55:29.764Z,34.30
2023-04-30T13:57:58.563Z,34.00
2023-04-30T14:00:26.656Z,33.82
2023-04-30T14:02:54.718Z,33.91
2023-04-30T14:05:22.842Z,34.57
2023-04-30T14:07:50.379Z,34.69
2023-04-30T14:10:18.473Z,34.87
2023-04-30T14:12:46.158Z,34.07
2023-04-30T14:15:13.650Z,34.06
2023-04-30T14:17:41.480Z,35.15
2023-04-30T14:20:13.816Z,35.28
2023-04-30T14:22:41.716Z,35.56
2023-04-30T14:25:11.429Z,34.25
2023-04-30T14:27:39.498Z,31.96
2023-04-30T14:30:09.432Z,30.50
2023-04-30T14:32:37.681Z,29.47
2023-04-30T14:35:08.180Z,28.58
2023-04-30T14:37:35.948Z,29.25
2023-04-30T14:40:06.727Z,28.28
2023-04-30T14:42:33.951Z,28.33
2023-04-30T14:45:01.460Z,28.33
2023-04-30T14:47:29.265Z,28.88
2023-04-30T14:49:59.047Z,29.02
2023-04-30T14:52:27.184Z,28.90
2023-04-30T14:54:54.657Z,29.13
2023-04-30T14:57:23.850Z,28.70
2023-04-30T14:59:52.739Z,29.09
2023-04-30T15:02:21.886Z,28.78
2023-04-30T15:04:49.686Z,28.83
2023-04-30T15:07:17.626Z,28.36
2023-04-30T15:09:46.722Z,28.38
2023-04-30T15:12:15.209Z,27.73
2023-04-30T15:14:43.038Z,27.40
2023-04-30T15:17:11.761Z,27.37
2023-04-30T15:19:39.161Z,27.91
2023-04-30T15:22:10.107Z,27.49
2023-04-30T15:24:38.268Z,28.26
2023-04-30T15:27:06.053Z,29.53
2023-04-30T15:29:33.818Z,29.92
2023-04-30T15:32:04.604Z,30.68
2023-04-30T15:34:32.299Z,31.82
2023-04-30T15:36:59.924Z,32.62
2023-04-30T15:39:27.360Z,33.19
2023-04-30T15:41:54.813Z,33.65
2023-04-30T15:44:22.700Z,34.64
2023-04-30T15:46:51.695Z,34.95
2023-04-30T15:49:19.401Z,35.50
2023-04-30T15:51:47.257Z,36.06
2023-04-30T15:54:14.955Z,36.35
2023-04-30T15:56:42.360Z,36.60
2023-04-30T15:59:10.223Z,37.11
2023-04-30T16:01:41.745Z,37.40
2023-04-30T16:04:09.771Z,38.10
2023-04-30T16:06:37.112Z,37.86
2023-04-30T16:09:07.599Z,38.67
2023-04-30T16:11:36.164Z,38.66
2023-04-30T16:14:03.621Z,39.27
2023-04-30T16:16:31.281Z,39.60
2023-04-30T16:18:58.690Z,40.11
2023-04-30T16:21:27.290Z,39.83
2023-04-30T16:23:55.150Z,40.55
2023-04-30T16:26:23.378Z,41.38
2023-04-30T16:28:51.404Z,41.83
2023-04-30T16:31:22.783Z,42.35
2023-04-30T16:33:50.773Z,42.51
2023-04-30T16:36:18.280Z,42.56
2023-04-30T16:38:46.768Z,42.94
2023-04-30T16:41:40.666Z,43.93
2023-04-30T16:44:08.196Z,44.22
2023-04-30T16:46:36.278Z,44.77
2023-04-30T16:49:04.126Z,44.70
2023-04-30T16:51:32.941Z,45.38
2023-04-30T16:54:00.799Z,46.00
2023-04-30T16:56:28.928Z,46.79
2023-04-30T16:58:56.519Z,47.08
2023-04-30T17:01:24.127Z,47.22
2023-04-30T17:03:52.074Z,48.48
2023-04-30T17:06:19.655Z,49.17
2023-04-30T17:08:47.416Z,49.85
2023-04-30T17:11:19.209Z,50.56
2023-04-30T17:13:46.790Z,51.53
2023-04-30T17:16:14.649Z,52.17
2023-04-30T17:18:42.624Z,52.65
2023-04-30T17:21:10.772Z,52.55
2023-04-30T17:23:38.325Z,52.87
2023-04-30T17:26:06.384Z,52.90
2023-04-30T17:28:34.236Z,53.31
2023-04-30T17:31:07.178Z,53.43
2023-04-30T17:33:35.394Z,52.93
2023-04-30T17:36:03.045Z,52.42
2023-04-30T17:38:30.584Z,52.00
2023-04-30T17:40:58.189Z,52.15
2023-04-30T17:43:25.942Z,52.41
2023-04-30T17:45:53.822Z,52.57
2023-04-30T17:48:21.526Z,52.65
2023-04-30T17:50:50.579Z,53.18
2023-04-30T17:53:18.015Z,53.13
2023-04-30T17:55:45.654Z,52.83
2023-04-30T17:58:13.104Z,52.87
2023-04-30T18:00:42.704Z,52.95
2023-04-30T18:03:11.146Z,53.04
2023-04-30T18:05:39.619Z,52.68
2023-04-30T18:08:07.564Z,52.72
2023-04-30T18:10:37.288Z,52.62
2023-04-30T18:13:04.832Z,52.98
2023-04-30T18:15:33.265Z,53.29
2023-04-30T18:18:01.022Z,53.12
2023-04-30T18:20:28.665Z,53.53
2023-04-30T18:22:56.744Z,53.63
2023-04-30T18:25:23.764Z,53.57
2023-04-30T18:27:51.499Z,53.41
2023-04-30T18:30:18.995Z,53.75
2023-04-30T18:32:46.865Z,53.77
2023-04-30T18:35:14.905Z,54.05
2023-04-30T18:37:42.880Z,53.64
2023-04-30T18:40:12.034Z,53.34
2023-04-30T18:42:39.568Z,53.01
2023-04-30T18:45:09.961Z,53.59
2023-04-30T18:47:37.634Z,54.01
2023-04-30T18:50:10.443Z,53.97
2023-04-30T18:52:38.135Z,53.86
2023-04-30T18:55:07.729Z,54.36
2023-04-30T18:57:35.766Z,54.31
2023-04-30T19:00:04.139Z,54.32
2023-04-30T19:02:32.633Z,54.20
2023-04-30T19:05:01.544Z,54.27
2023-04-30T19:07:29.432Z,54.67
2023-04-30T19:09:57.122Z,54.72
2023-04-30T19:12:24.877Z,54.88
2023-04-30T19:14:53.042Z,55.23
2023-04-30T19:17:21.879Z,55.59
2023-04-30T19:19:50.305Z,55.22
2023-04-30T19:22:19.495Z,55.75
2023-04-30T19:24:47.319Z,56.15
2023-04-30T19:27:15.359Z,55.68
2023-04-30T19:29:43.945Z,56.01
2023-04-30T19:32:11.730Z,56.54
2023-04-30T19:34:39.171Z,56.30
2023-04-30T19:37:07.160Z,56.74
2023-04-30T19:39:36.631Z,56.80
2023-04-30T19:42:04.324Z,57.01
2023-04-30T19:44:31.764Z,57.23
2023-04-30T19:46:59.224Z,56.93
2023-04-30T19:49:27.305Z,57.23
2023-04-30T19:51:55.053Z,57.26
2023-04-30T19:54:22.631Z,57.35
2023-04-30T19:56:52.925Z,57.41
2023-04-30T19:59:21.062Z,57.68
2023-04-30T20:01:48.765Z,57.85
2023-04-30T20:04:16.637Z,58.13
2023-04-30T20:06:44.717Z,58.17
2023-04-30T20:09:12.519Z,58.38
2023-04-30T20:11:40.388Z,58.58
2023-04-30T20:14:08.274Z,58.53
2023-04-30T20:16:36.054Z,58.62
2023-04-30T20:19:04.347Z,58.86
2023-04-30T20:21:32.111Z,59.08
2023-04-30T20:24:00.343Z,59.50
2023-04-30T20:26:50.321Z,59.91
2023-04-30T20:29:20.683Z,60.07
2023-04-30T20:31:48.194Z,60.66
2023-04-30T20:34:15.973Z,60.42
2023-04-30T20:36:43.878Z,60.44
2023-04-30T20:39:12.147Z,60.68
2023-04-30T20:41:41.207Z,61.38
2023-04-30T20:44:08.622Z,61.33
2023-04-30T20:46:36.985Z,61.84
2023-04-30T20:49:05.211Z,62.23
2023-04-30T20:51:33.076Z,62.60
2023-04-30T20:54:00.477Z,62.55
2023-04-30T20:56:28.302Z,62.99
2023-04-30T20:58:55.996Z,63.15
2023-04-30T21:01:24.331Z,63.35
2023-04-30T21:03:51.900Z,63.31
2023-04-30T21:06:19.677Z,63.54
2023-04-30T21:09:07.156Z,63.69
2023-04-30T21:11:35.440Z,64.06
2023-04-30T21:14:03.339Z,64.13
2023-04-30T21:16:31.358Z,64.17
2023-04-30T21:18:59.662Z,63.99
2023-04-30T21:21:27.528Z,63.80
2023-04-30T21:23:55.504Z,63.94
2023-04-30T21:26:23.573Z,64.26
2023-04-30T21:28:52.980Z,64.29
2023-04-30T21:31:20.557Z,64.42
2023-04-30T21:33:48.184Z,64.66
2023-04-30T21:36:16.630Z,64.57
2023-04-30T21:38:44.531Z,64.94
2023-04-30T21:41:15.787Z,65.47
2023-04-30T21:43:43.390Z,65.75
2023-04-30T21:46:11.135Z,66.04
2023-04-30T21:48:39.377Z,66.12
2023-04-30T21:51:15.108Z,66.38
2023-04-30T21:53:42.925Z,66.45
2023-04-30T21:56:10.492Z,66.31
2023-04-30T21:58:38.908Z,66.74
2023-04-30T22:01:09.882Z,66.57
2023-04-30T22:03:37.775Z,66.60
2023-04-30T22:06:06.101Z,66.63
2023-04-30T22:08:33.683Z,66.58
2023-04-30T22:11:01.412Z,67.12
2023-04-30T22:13:28.756Z,67.35
2023-04-30T22:15:56.778Z,67.58
2023-04-30T22:18:24.702Z,67.72
2023-04-30T22:20:52.310Z,67.56
2023-04-30T22:23:23.201Z,67.66
2023-04-30T22:25:50.842Z,67.80
2023-04-30T22:28:23.504Z,67.59
2023-04-30T22:30:51.259Z,67.86
2023-04-30T22:33:18.967Z,67.78
2023-04-30T22:35:46.899Z,68.00
2023-04-30T22:38:14.404Z,68.00
2023-04-30T22:40:41.996Z,68.20
2023-04-30T22:43:10.066Z,68.11
2023-04-30T22:45:38.185Z,68.17
2023-04-30T22:48:07.262Z,67.96
2023-04-30T22:50:34.872Z,68.21
2023-04-30T22:53:02.844Z,68.41
2023-04-30T22:55:31.776Z,68.50
2023-04-30T22:58:00.955Z,68.95
2023-04-30T23:00:28.925Z,69.26
2023-04-30T23:02:56.718Z,69.05
2023-04-30T23:05:24.593Z,69.18
2023-04-30T23:07:52.360Z,69.46
2023-04-30T23:10:20.247Z,69.28
2023-04-30T23:12:48.031Z,69.44
2023-04-30T23:15:16.116Z,69.05
2023-04-30T23:17:44.212Z,69.06
2023-04-30T23:20:12.430Z,69.23
2023-04-30T23:22:40.312Z,69.66
2023-04-30T23:25:09.517Z,69.70
2023-04-30T23:27:37.362Z,69.58
2023-04-30T23:30:08.178Z,69.33
2023-04-30T23:32:36.143Z,69.38
2023-04-30T23:35:04.385Z,69.65
2023-04-30T23:37:32.232Z,69.76
2023-04-30T23:40:00.883Z,69.39
2023-04-30T23:42:28.287Z,69.16
2023-04-30T23:44:56.269Z,69.64
2023-04-30T23:47:24.103Z,69.60
2023-04-30T23:49:52.273Z,70.00
2023-04-30T23:52:20.108Z,70.45
2023-04-30T23:54:48.002Z,70.65
2023-04-30T23:57:15.472Z,71.10
2023-04-30T23:59:43.876Z,71.61
